Time;durP1;ratioP1;P1;durP2;ratioP2;P2;SDS_P1;SDS_P2;PMS_P1;PMS_P2;Temp;Humidity;BMP_temperature;BMP_pressure;BME280_temperature;BME280_humidity;BME280_pressure;Samples;Min_cycle;Max_cycle;Signal;HPM_P1;HPM_P2
2024/02/13 00:02:10;;;;;;;4.73;3.07;;;;;;;5.67;100.00;99826.20;4902601;58;1134594;-80
2024/02/13 00:07:15;;;;;;;4.73;3.40;;;;;;;5.64;100.00;99830.38;4808719;59;1135706;-80
2024/02/13 00:12:21;;;;;;;7.13;3.60;;;;;;;5.61;100.00;99842.38;4894735;58;1134510;-80
2024/02/13 00:17:28;;;;;;;7.12;3.80;;;;;;;5.61;100.00;99851.09;4906341;58;1134782;-80
2024/02/13 00:22:35;;;;;;;6.07;3.40;;;;;;;5.62;100.00;99854.56;4861310;59;1134665;-79
2024/02/13 00:27:41;;;;;;;9.13;4.97;;;;;;;5.59;100.00;99863.47;4799735;59;1137363;-80
2024/02/13 00:32:47;;;;;;;11.70;4.73;;;;;;;5.57;100.00;99868.44;4906003;58;1137186;-79
2024/02/13 00:37:53;;;;;;;7.67;5.10;;;;;;;5.54;100.00;99882.59;4899711;58;1136969;-79
2024/02/13 00:42:58;;;;;;;6.30;4.00;;;;;;;5.54;100.00;99880.45;4883869;58;1134601;-79
2024/02/13 00:48:05;;;;;;;5.63;4.43;;;;;;;5.56;100.00;99889.05;4866200;58;1136733;-79
2024/02/13 00:53:11;;;;;;;9.20;4.50;;;;;;;5.57;100.00;99894.67;4891088;58;1137066;-80
2024/02/13 00:58:17;;;;;;;10.73;5.37;;;;;;;5.58;100.00;99900.29;4924256;58;1253714;-79
2024/02/13 01:03:23;;;;;;;10.30;5.47;;;;;;;5.56;100.00;99899.08;4918091;58;1139452;-79
2024/02/13 01:08:28;;;;;;;9.23;5.53;;;;;;;5.58;100.00;99898.98;4885622;57;1138870;-79
2024/02/13 01:13:34;;;;;;;11.30;5.13;;;;;;;5.54;100.00;99901.42;4839164;59;1136528;-80
2024/02/13 01:18:40;;;;;;;7.60;5.08;;;;;;;5.51;100.00;99912.12;4846756;59;1138985;-80
2024/02/13 01:23:45;;;;;;;9.37;6.03;;;;;;;5.45;100.00;99919.09;4905604;58;1136965;-77
2024/02/13 01:28:51;;;;;;;9.38;5.75;;;;;;;5.39;100.00;99922.95;4940417;58;1137696;-78
2024/02/13 01:33:56;;;;;;;8.33;5.47;;;;;;;5.36;100.00;99928.86;4923361;58;1136757;-77
2024/02/13 01:39:03;;;;;;;10.60;6.13;;;;;;;5.34;100.00;99936.02;4920622;58;1134272;-75
2024/02/13 01:44:08;;;;;;;12.03;6.47;;;;;;;5.34;100.00;99946.50;4875034;58;1137021;-75
2024/02/13 01:49:14;;;;;;;13.80;5.70;;;;;;;5.35;100.00;99946.88;4868560;58;1136876;-75
2024/02/13 01:54:20;;;;;;;9.80;6.30;;;;;;;5.33;100.00;99950.91;4791429;59;1138983;-75
2024/02/13 01:59:27;;;;;;;13.83;7.75;;;;;;;5.32;100.00;99953.63;4818121;58;1137125;-76
2024/02/13 02:04:33;;;;;;;12.73;8.40;;;;;;;5.27;100.00;99957.84;4861583;58;1136802;-76
2024/02/13 02:09:39;;;;;;;16.70;7.97;;;;;;;5.24;100.00;99969.36;4886821;58;1136746;-75
2024/02/13 02:14:44;;;;;;;14.78;8.08;;;;;;;5.20;100.00;99980.98;4938278;58;1136691;-76
2024/02/13 02:19:51;;;;;;;14.57;7.87;;;;;;;5.18;100.00;99983.35;4960178;58;1136938;-76
2024/02/13 02:24:56;;;;;;;11.40;7.53;;;;;;;5.15;100.00;99991.41;4940747;58;1136972;-75
2024/02/13 02:30:02;;;;;;;12.87;7.93;;;;;;;5.13;100.00;99991.97;4941392;58;1136746;-76
2024/02/13 02:35:08;;;;;;;22.27;8.63;;;;;;;5.12;100.00;99996.84;4955378;57;1136688;-76
2024/02/13 02:40:14;;;;;;;14.73;8.83;;;;;;;5.11;100.00;99996.46;4938326;57;1136472;-75
2024/02/13 02:45:20;;;;;;;16.10;8.13;;;;;;;5.11;100.00;99998.62;4938298;57;1136625;-76
2024/02/13 02:50:26;;;;;;;19.13;7.77;;;;;;;5.11;100.00;100005.17;4898346;58;1136761;-75
2024/02/13 02:55:31;;;;;;;18.87;9.80;;;;;;;5.10;100.00;100021.83;4884043;58;1138885;-76
2024/02/13 03:00:37;;;;;;;14.00;8.90;;;;;;;5.11;100.00;100030.06;4942519;57;1138708;-75
2024/02/13 03:05:43;;;;;;;14.87;8.45;;;;;;;5.14;100.00;100041.67;4881508;58;1138883;-75
2024/02/13 03:10:49;;;;;;;18.25;8.48;;;;;;;5.16;100.00;100043.73;4878859;58;1138976;-77
2024/02/13 03:15:54;;;;;;;21.37;10.00;;;;;;;5.17;100.00;100048.05;4853865;58;1139012;-77
2024/02/13 03:21:00;;;;;;;15.90;8.03;;;;;;;5.17;100.00;100046.73;4817901;58;1140959;-77
2024/02/13 03:26:05;;;;;;;19.50;8.90;;;;;;;5.17;100.00;100059.00;4865349;58;1138955;-78
2024/02/13 03:31:11;;;;;;;13.80;9.03;;;;;;;5.16;100.00;100077.81;4807930;58;1139039;-77
2024/02/13 03:36:17;;;;;;;23.13;10.27;;;;;;;5.17;100.00;100082.13;4857943;58;1139113;-77
2024/02/13 03:41:22;;;;;;;18.47;10.03;;;;;;;5.15;100.00;100089.23;4843586;58;1141106;-78
2024/02/13 03:46:28;;;;;;;15.73;8.77;;;;;;;5.14;100.00;100097.19;4801024;59;1140853;-78
2024/02/13 03:51:33;;;;;;;23.03;9.53;;;;;;;5.14;100.00;100111.14;4818626;58;1138765;-78
2024/02/13 03:56:41;;;;;;;15.87;8.43;;;;;;;5.13;100.00;100125.19;4909609;58;1138751;-77
2024/02/13 04:01:47;;;;;;;14.80;8.05;;;;;;;5.13;100.00;100134.83;4927067;58;1138766;-77
2024/02/13 04:06:52;;;;;;;14.40;7.80;;;;;;;5.11;100.00;100136.23;4933815;58;1138818;-78
2024/02/13 04:11:58;;;;;;;18.73;8.00;;;;;;;5.11;100.00;100142.78;4803386;59;1138691;-77
2024/02/13 04:17:03;;;;;;;11.47;7.90;;;;;;;5.11;100.00;100155.04;4904326;58;1138847;-78
2024/02/13 04:22:09;;;;;;;14.03;8.60;;;;;;;5.11;100.00;100158.51;4774729;59;1138825;-77
2024/02/13 04:27:14;;;;;;;14.53;7.27;;;;;;;5.11;100.00;100161.59;4952524;57;1138783;-77
2024/02/13 04:32:20;;;;;;;17.10;8.60;;;;;;;5.09;100.00;100168.70;4945665;57;1138952;-77
2024/02/13 04:37:26;;;;;;;10.17;5.47;;;;;;;5.08;100.00;100180.13;4991875;57;1139407;-77
2024/02/13 04:42:37;;;;;;;12.17;6.03;;;;;;;5.10;100.00;100182.19;4915764;58;1139337;-77
2024/02/13 04:47:46;;;;;;;10.57;5.27;;;;;;;5.12;100.00;100186.88;4909364;57;1139038;-77
2024/02/13 04:52:50;;;;;;;12.88;6.58;;;;;;;5.09;100.00;100189.67;4991070;56;1138583;-78
2024/02/13 04:57:57;;;;;;;8.80;5.47;;;;;;;5.13;100.00;100190.72;4996607;57;1138934;-79
2024/02/13 05:03:24;;;;;;;14.33;6.07;;;;;;;5.10;100.00;100190.05;4984629;56;1136472;-80
2024/02/13 05:08:24;;;;;;;13.98;6.70;;;;;;;5.11;100.00;100201.76;4960821;57;1138990;-78
2024/02/13 05:13:33;;;;;;;11.93;7.30;;;;;;;5.12;100.00;100217.86;5022224;57;1139206;-79
2024/02/13 05:18:39;;;;;;;15.28;9.25;;;;;;;5.11;100.00;100236.30;5032392;57;1138862;-79
2024/02/13 05:23:47;;;;;;;11.97;7.83;;;;;;;5.09;100.00;100233.77;5025291;56;1138830;-78
2024/02/13 05:28:52;;;;;;;15.13;8.33;;;;;;;5.10;100.00;100248.56;5025939;57;1138987;-78
2024/02/13 05:33:58;;;;;;;19.53;8.50;;;;;;;5.09;100.00;100257.82;5006922;56;1138957;-78
2024/02/13 05:39:03;;;;;;;17.02;8.80;;;;;;;5.10;100.00;100255.58;4980272;56;1138991;-79
2024/02/13 05:44:09;;;;;;;15.03;7.63;;;;;;;5.10;100.00;100268.22;5024304;57;1138884;-79
2024/02/13 05:49:15;;;;;;;12.70;7.67;;;;;;;5.08;100.00;100262.69;4989468;57;1138981;-79
2024/02/13 05:54:20;;;;;;;14.57;7.67;;;;;;;5.09;100.00;100267.00;4972717;57;1139228;-79
2024/02/13 05:59:29;;;;;;;16.67;7.42;;;;;;;5.09;100.00;100278.80;5008797;57;1138861;-79
2024/02/13 06:04:34;;;;;;;11.70;7.37;;;;;;;5.10;100.00;100295.74;5035718;57;1139134;-79
2024/02/13 06:09:40;;;;;;;20.83;8.70;;;;;;;5.08;100.00;100302.84;5017730;57;1138779;-78
2024/02/13 06:14:47;;;;;;;21.67;8.93;;;;;;;5.06;100.00;100313.88;5008727;57;1138748;-79
2024/02/13 06:19:54;;;;;;;10.80;7.83;;;;;;;5.05;100.00;100321.37;5044767;57;1138891;-79
2024/02/13 06:25:01;;;;;;;19.27;9.47;;;;;;;5.05;100.00;100323.14;5013066;57;1138857;-79
2024/02/13 06:30:08;;;;;;;20.53;8.47;;;;;;;5.06;100.00;100323.52;5014691;57;1138660;-79
2024/02/13 06:35:14;;;;;;;17.13;8.73;;;;;;;5.04;100.00;100346.39;5063984;56;1138664;-79
2024/02/13 06:40:20;;;;;;;18.73;8.70;;;;;;;5.02;100.00;100355.64;5033175;56;1138739;-78
2024/02/13 06:45:27;;;;;;;11.30;7.77;;;;;;;5.02;100.00;100363.97;5010053;57;1138686;-78
2024/02/13 06:50:32;;;;;;;20.47;8.43;;;;;;;5.00;100.00;100381.56;5021405;57;1138955;-79
2024/02/13 06:55:38;;;;;;;13.87;8.03;;;;;;;4.98;100.00;100398.67;5051026;57;1138796;-79
2024/02/13 07:00:44;;;;;;;21.33;8.00;;;;;;;4.98;100.00;100401.30;5025889;56;1138765;-79
2024/02/13 07:05:49;;;;;;;15.40;6.57;;;;;;;5.01;100.00;100411.61;4922517;57;1138643;-78
2024/02/13 07:10:55;;;;;;;15.50;6.10;;;;;;;5.03;100.00;100416.31;4981227;57;1138976;-76
2024/02/13 07:16:01;;;;;;;13.80;6.87;;;;;;;5.06;100.00;100425.28;4995644;57;1138992;-78
2024/02/13 07:21:06;;;;;;;9.33;5.33;;;;;;;5.09;100.00;100429.52;5027245;57;1138856;-79
2024/02/13 07:26:12;;;;;;;14.87;6.37;;;;;;;5.14;100.00;100440.13;5051293;56;1136657;-74
2024/02/13 07:31:19;;;;;;;14.27;5.70;;;;;;;5.18;100.00;100444.74;4933350;58;1139229;-76
2024/02/13 07:36:24;;;;;;;9.87;5.70;;;;;;;5.19;100.00;100443.34;4962823;57;1138798;-78
2024/02/13 07:41:34;;;;;;;9.40;5.33;;;;;;;5.21;100.00;100454.56;5022966;57;1136599;-79
2024/02/13 07:46:38;;;;;;;10.63;5.10;;;;;;;5.25;100.00;100465.27;5047840;57;1136844;-78
2024/02/13 07:51:44;;;;;;;8.93;5.30;;;;;;;5.30;100.00;100471.58;5036801;56;1140849;-77
2024/02/13 07:56:53;;;;;;;8.28;4.28;;;;;;;5.34;100.00;100478.34;5020021;57;1138792;-74
2024/02/13 08:01:58;;;;;;;10.60;4.77;;;;;;;5.20;100.00;100470.38;5054304;57;1136766;-78
2024/02/13 08:07:04;;;;;;;14.50;3.27;;;;;;;5.29;100.00;100502.19;5024705;57;1139049;-76
2024/02/13 08:12:12;;;;;;;9.37;2.73;;;;;;;5.32;100.00;100503.80;5008242;57;1138978;-76
2024/02/13 08:17:18;;;;;;;11.80;2.90;;;;;;;5.32;100.00;100508.20;5034139;57;1137092;-77
2024/02/13 08:22:23;;;;;;;6.67;3.00;;;;;;;5.30;100.00;100519.63;5013920;56;1138831;-78
2024/02/13 08:27:29;;;;;;;14.50;4.73;;;;;;;5.32;100.00;100520.85;5041638;56;1136778;-75
2024/02/13 08:32:37;;;;;;;7.57;2.83;;;;;;;5.35;100.00;100527.20;5042707;56;1139220;-79
2024/02/13 08:37:42;;;;;;;10.10;2.70;;;;;;;5.33;100.00;100536.12;5040717;57;1136933;-78
2024/02/13 08:42:49;;;;;;;8.33;2.62;;;;;;;5.29;100.00;100546.77;5000109;57;1138686;-78
2024/02/13 08:47:55;;;;;;;11.78;2.70;;;;;;;5.30;100.00;100559.42;5022359;57;1136808;-80
2024/02/13 08:53:01;;;;;;;5.78;2.75;;;;;;;5.29;100.00;100562.50;4984424;57;1138787;-82
2024/02/13 08:58:08;;;;;;;11.33;2.37;;;;;;;5.29;100.00;100569.06;4981814;57;1136849;-79
2024/02/13 09:03:13;;;;;;;10.43;2.27;;;;;;;5.34;100.00;100574.53;5026983;57;1138904;-78
2024/02/13 09:08:19;;;;;;;8.23;2.47;;;;;;;5.37;100.00;100588.29;5002658;57;1139275;-81
2024/02/13 09:13:24;;;;;;;4.37;2.07;;;;;;;5.41;100.00;100590.28;5015475;57;1137147;-80
2024/02/13 09:18:30;;;;;;;4.33;2.07;;;;;;;5.46;100.00;100598.30;5022565;57;1139033;-81
2024/02/13 09:23:35;;;;;;;9.50;3.80;;;;;;;5.46;100.00;100602.23;5042993;56;1136713;-80
2024/02/13 09:28:41;;;;;;;9.20;1.77;;;;;;;5.46;100.00;100615.81;5029443;56;1248887;-81
2024/02/13 09:33:46;;;;;;;8.00;2.40;;;;;;;5.41;100.00;100616.52;5007215;56;1136689;-79
2024/02/13 09:38:52;;;;;;;9.75;1.90;;;;;;;5.41;100.00;100628.32;5049538;56;1136642;-81
2024/02/13 09:44:02;;;;;;;5.17;1.75;;;;;;;5.43;100.00;100633.02;5031580;56;1137807;-80
2024/02/13 09:49:11;;;;;;;9.20;2.13;;;;;;;5.44;100.00;100632.94;5026878;56;1136928;-81
2024/02/13 09:54:18;;;;;;;5.73;2.13;;;;;;;5.47;100.00;100639.80;5049902;56;1137007;-78
2024/02/13 09:59:24;;;;;;;8.17;2.00;;;;;;;5.51;100.00;100648.70;5032962;56;1136406;-78
2024/02/13 10:04:29;;;;;;;5.72;1.95;;;;;;;5.59;100.00;100652.23;5020260;57;1137168;-77
2024/02/13 10:09:35;;;;;;;5.33;1.92;;;;;;;5.66;100.00;100650.48;5017504;56;1136602;-76
2024/02/13 10:14:41;;;;;;;7.87;2.20;;;;;;;5.83;100.00;100657.43;4985870;57;1137567;-78
2024/02/13 10:19:46;;;;;;;7.50;2.17;;;;;;;5.99;100.00;100655.67;4932516;56;1136688;-77
2024/02/13 10:24:55;;;;;;;8.40;1.70;;;;;;;6.14;100.00;100660.98;4952107;57;1136588;-80
2024/02/13 10:30:00;;;;;;;8.68;2.27;;;;;;;6.28;100.00;100663.20;4980068;57;1136723;-81
2024/02/13 10:35:09;;;;;;;7.70;3.20;;;;;;;6.37;100.00;100665.78;5005512;56;1136628;-79
2024/02/13 10:40:24;;;;;;;4.03;1.80;;;;;;;6.32;100.00;100671.30;5019394;57;1136749;-77
2024/02/13 10:45:30;;;;;;;7.00;2.00;;;;;;;6.27;100.00;100680.36;5011203;57;1137168;-80
2024/02/13 10:50:37;;;;;;;2.90;1.50;;;;;;;6.22;100.00;100672.77;5012355;56;1136818;-78
2024/02/13 10:55:46;;;;;;;3.66;1.54;;;;;;;6.20;100.00;100687.76;5045876;57;1137018;-79
2024/02/13 11:00:56;;;;;;;7.35;2.33;;;;;;;6.18;100.00;100673.02;5012803;57;1136511;-83
2024/02/13 11:06:02;;;;;;;10.43;2.57;;;;;;;6.18;100.00;100679.12;4969606;57;1136631;-80
2024/02/13 11:11:21;;;;;;;12.30;2.50;;;;;;;6.17;100.00;100684.45;4972051;57;1138883;-77
2024/02/13 11:16:27;;;;;;;7.97;2.03;;;;;;;6.19;100.00;100695.72;4963001;56;1138641;-80
2024/02/13 11:21:34;;;;;;;3.10;1.62;;;;;;;6.15;100.00;100694.19;4984089;57;1136547;-79
2024/02/13 11:26:40;;;;;;;9.10;2.33;;;;;;;6.14;100.00;100695.13;4998643;57;1136618;-80
2024/02/13 11:31:57;;;;;;;5.00;2.20;;;;;;;6.15;100.00;100692.41;4968508;57;1139003;-79
2024/02/13 11:37:19;;;;;;;3.50;1.50;;;;;;;6.20;100.00;100700.04;5002225;57;1136781;-77
2024/02/13 11:42:25;;;;;;;4.67;1.00;;;;;;;6.18;100.00;100703.22;4919523;57;1136949;-78
2024/02/13 11:47:31;;;;;;;8.13;3.50;;;;;;;6.16;100.00;100709.02;4918683;57;1137124;-79
2024/02/13 11:52:37;;;;;;;14.73;7.80;;;;;;;6.17;100.00;100712.03;4975681;56;1136832;-80
2024/02/13 11:57:44;;;;;;;11.73;6.50;;;;;;;6.14;100.00;100719.61;4975626;57;1138887;-78
2024/02/13 12:02:54;;;;;;;11.97;6.70;;;;;;;6.15;100.00;100717.83;5000959;57;1139012;-81
2024/02/13 12:07:58;;;;;;;3.90;1.33;;;;;;;6.14;100.00;100718.29;4954886;57;1138984;-80
2024/02/13 12:13:04;;;;;;;9.57;1.57;;;;;;;6.15;100.00;100723.92;4960871;57;1137146;-81
2024/02/13 12:18:19;;;;;;;4.47;1.43;;;;;;;6.20;100.00;100724.99;4972873;57;1136865;-72
2024/02/13 12:23:20;;;;;;;7.33;1.70;;;;;;;6.20;100.00;100727.62;4974804;57;1137035;-76
2024/02/13 12:28:26;;;;;;;8.47;1.30;;;;;;;6.22;100.00;100733.17;4958795;56;1136776;-80
2024/02/13 12:33:32;;;;;;;1.35;1.20;;;;;;;6.21;100.00;100737.19;5006917;57;1137551;-78
2024/02/13 12:38:38;;;;;;;3.37;1.12;;;;;;;6.19;100.00;100735.96;5029552;57;1136573;-75
2024/02/13 12:43:44;;;;;;;2.87;1.30;;;;;;;6.21;100.00;100746.38;4988454;57;1136309;-81
2024/02/13 12:48:51;;;;;;;1.83;1.10;;;;;;;6.23;100.00;100749.31;4960625;57;1138858;-81
2024/02/13 12:53:56;;;;;;;2.25;1.20;;;;;;;6.22;100.00;100742.36;4995033;57;1136932;-82
2024/02/13 12:59:02;;;;;;;1.82;0.90;;;;;;;6.20;100.00;100752.56;5016056;56;1136819;-81
2024/02/13 13:04:09;;;;;;;5.53;1.57;;;;;;;6.20;100.00;100756.04;4956686;56;1136664;-80
2024/02/13 13:09:15;;;;;;;5.93;1.67;;;;;;;6.20;100.00;100760.45;5030012;56;1136838;-82
2024/02/13 13:14:21;;;;;;;1.90;1.50;;;;;;;6.18;100.00;100769.72;4860318;58;1136925;-77
2024/02/13 13:19:29;;;;;;;4.67;0.83;;;;;;;6.21;100.00;100760.36;4823046;58;1137114;-81
2024/02/13 13:24:34;;;;;;;5.60;0.85;;;;;;;6.24;100.00;100763.28;4801752;58;1136572;-81
2024/02/13 13:29:40;;;;;;;2.30;1.10;;;;;;;6.23;100.00;100768.16;4871860;58;1136973;-78
2024/02/13 13:34:48;;;;;;;4.20;2.77;;;;;;;6.25;100.00;100772.87;4827987;58;1136955;-82
2024/02/13 13:39:53;;;;;;;3.17;1.33;;;;;;;6.30;100.00;100774.28;4763926;59;1137033;-82
2024/02/13 13:44:58;;;;;;;6.03;1.30;;;;;;;6.29;100.00;100784.88;4806331;59;1136861;-79
2024/02/13 13:50:07;;;;;;;5.15;2.00;;;;;;;6.30;100.00;100798.39;4900055;57;1136936;-81
2024/02/13 13:55:12;;;;;;;7.20;1.90;;;;;;;6.33;100.00;100800.84;4928783;57;1136709;-81
2024/02/13 14:00:20;;;;;;;5.50;1.97;;;;;;;6.27;100.00;100808.59;5011481;56;1136635;-80
2024/02/13 14:05:25;;;;;;;4.83;2.10;;;;;;;6.10;100.00;100806.53;4866768;57;1136830;-78
2024/02/13 14:10:37;;;;;;;5.65;2.33;;;;;;;6.07;100.00;100808.01;4935059;57;1136800;-80
2024/02/13 14:15:39;;;;;;;8.73;3.33;;;;;;;6.02;100.00;100809.56;5029622;57;1138503;-81
2024/02/13 14:20:46;;;;;;;9.70;4.10;;;;;;;5.99;100.00;100812.34;5031491;56;1138528;-81
2024/02/13 14:25:52;;;;;;;13.07;4.03;;;;;;;5.99;100.00;100812.34;5035001;56;1138687;-79
2024/02/13 14:30:58;;;;;;;10.90;3.70;;;;;;;6.01;100.00;100824.93;5035277;56;1140895;-82
2024/02/13 14:36:03;;;;;;;19.27;4.73;;;;;;;6.03;100.00;100837.98;4914622;57;1140988;-78
2024/02/13 14:41:09;;;;;;;5.03;1.83;;;;;;;6.00;100.00;100839.83;4897359;57;1138931;-82
2024/02/13 14:46:15;;;;;;;7.13;2.67;;;;;;;5.98;100.00;100843.46;4997716;56;1139047;-81
2024/02/13 14:51:22;;;;;;;4.27;1.40;;;;;;;5.92;100.00;100853.00;4883700;58;1139029;-80
2024/02/13 14:56:29;;;;;;;2.77;1.60;;;;;;;5.82;100.00;100853.05;4874258;58;1138833;-82
2024/02/13 15:01:45;;;;;;;3.87;1.57;;;;;;;5.78;100.00;100858.94;4935291;57;1139088;-81
2024/02/13 15:06:51;;;;;;;3.97;1.30;;;;;;;5.75;100.00;100864.81;4897741;57;1139360;-79
2024/02/13 15:11:57;;;;;;;1.80;1.15;;;;;;;5.73;100.00;100867.51;4802844;58;1139259;-81
2024/02/13 15:17:15;;;;;;;2.77;1.23;;;;;;;5.72;100.00;100867.13;4897980;58;1139859;-81
2024/02/13 15:22:27;;;;;;;8.10;2.00;;;;;;;5.71;100.00;100875.92;4868135;58;1139173;-81
2024/02/13 15:27:29;;;;;;;2.02;1.60;;;;;;;5.70;100.00;100874.22;4937047;57;1137005;-82
2024/02/13 15:32:34;;;;;;;19.87;8.03;;;;;;;5.72;100.00;100883.33;4910620;58;1136552;-81
2024/02/13 15:48:26;;;;;;;;;;;;;;;5.96;100.00;100897.36;4847307;58;1141375;-80
2024/02/13 15:53:32;;;;;;;55.10;19.05;;;;;;;6.03;100.00;100898.36;4849960;58;976393;-77
2024/02/13 15:58:38;;;;;;;220.85;86.30;;;;;;;6.02;100.00;100894.89;4880018;58;1140997;-79
2024/02/13 16:03:45;;;;;;;281.47;90.37;;;;;;;6.00;100.00;100900.22;4869820;58;1145117;-80
2024/02/13 16:08:50;;;;;;;134.37;53.87;;;;;;;5.96;100.00;100906.55;4856171;59;1145247;-78
2024/02/13 16:13:56;;;;;;;351.20;122.70;;;;;;;5.88;100.00;100912.68;4726537;58;1143929;-83
2024/02/13 16:19:04;;;;;;;469.95;171.35;;;;;;;5.81;100.00;100911.71;4708352;59;1145091;-79
2024/02/13 16:24:09;;;;;;;134.50;52.50;;;;;;;5.78;100.00;100919.77;4790915;58;1145175;-79
2024/02/13 16:29:17;;;;;;;91.25;38.65;;;;;;;5.74;100.00;100919.53;4771315;59;1142653;-79
2024/02/13 16:34:23;;;;;;;83.97;38.80;;;;;;;5.72;100.00;100929.26;4793525;58;1140949;-78
2024/02/13 16:39:28;;;;;;;204.33;77.50;;;;;;;5.71;100.00;100932.80;4868921;58;1145779;-82
2024/02/13 16:44:34;;;;;;;161.57;66.90;;;;;;;5.58;100.00;100941.30;4850491;59;1145322;-78
2024/02/13 16:49:40;;;;;;;108.80;45.00;;;;;;;5.42;100.00;100942.98;4770382;58;1145187;-78
2024/02/13 16:54:46;;;;;;;139.73;65.83;;;;;;;5.32;100.00;100954.02;4850285;58;1144981;-79
2024/02/13 16:59:54;;;;;;;68.23;31.00;;;;;;;5.22;100.00;100957.53;4795025;59;1143984;-79
2024/02/13 17:04:58;;;;;;;108.30;42.83;;;;;;;5.07;100.00;100963.05;4806427;58;1140952;-79
2024/02/13 17:10:05;;;;;;;162.25;71.90;;;;;;;4.95;100.00;100971.50;4776588;59;1143133;-76
2024/02/13 17:15:12;;;;;;;227.13;85.07;;;;;;;4.85;100.00;100985.51;4705078;60;1143328;-78
2024/02/13 17:20:18;;;;;;;130.77;47.37;;;;;;;4.81;100.00;100983.95;4923349;58;1144815;-82
2024/02/13 17:25:23;;;;;;;90.42;39.30;;;;;;;4.76;100.00;100984.61;4920274;58;1145408;-83
2024/02/13 17:30:29;;;;;;;110.20;55.53;;;;;;;4.81;100.00;100984.41;4899982;58;1143133;-82
2024/02/13 17:35:35;;;;;;;234.63;67.63;;;;;;;4.87;100.00;100995.47;4895661;58;1143283;-78
2024/02/13 17:40:40;;;;;;;132.00;44.40;;;;;;;4.85;100.00;100997.30;4862033;58;1143141;-79
2024/02/13 17:45:46;;;;;;;127.10;52.97;;;;;;;4.82;100.00;100996.13;4899179;58;1142976;-78
2024/02/13 17:50:52;;;;;;;144.90;58.30;;;;;;;4.78;100.00;101006.81;4837350;58;1143081;-81
2024/02/13 17:55:57;;;;;;;155.82;56.50;;;;;;;4.63;100.00;101007.51;4857065;58;1143180;-83
2024/02/13 18:01:03;;;;;;;140.37;56.37;;;;;;;4.54;100.00;101004.86;4820366;59;1143033;-83
2024/02/13 18:06:09;;;;;;;126.93;56.17;;;;;;;4.55;100.00;101013.95;4879567;58;1143044;-82
2024/02/13 18:11:14;;;;;;;108.07;52.63;;;;;;;4.58;100.00;101016.41;4899950;57;1142810;-82
2024/02/13 18:16:20;;;;;;;227.07;99.20;;;;;;;4.58;100.00;101016.91;4883432;58;1143146;-80
2024/02/13 18:21:25;;;;;;;144.90;68.92;;;;;;;4.54;100.00;101017.50;4893656;57;1143119;-82
2024/02/13 18:26:31;;;;;;;163.13;74.23;;;;;;;4.44;100.00;101016.19;4931327;57;1143195;-79
2024/02/13 18:31:38;;;;;;;137.73;65.23;;;;;;;4.34;100.00;101020.14;4907056;58;1143168;-82
2024/02/13 18:36:47;;;;;;;136.37;62.77;;;;;;;4.22;100.00;101027.22;4811510;58;1143098;-81
2024/02/13 18:41:52;;;;;;;110.27;50.87;;;;;;;4.18;100.00;101034.80;4852976;58;1143143;-80
2024/02/13 18:46:58;;;;;;;102.07;51.10;;;;;;;4.11;100.00;101038.62;4788960;58;1142970;-75
2024/02/13 18:52:04;;;;;;;87.30;40.03;;;;;;;4.04;100.00;101043.25;4859252;58;1143022;-78
2024/02/13 18:57:10;;;;;;;54.33;22.23;;;;;;;3.98;100.00;101043.95;4943572;58;1141010;-77
2024/02/13 19:02:19;;;;;;;36.80;14.93;;;;;;;3.87;100.00;101037.41;4915339;58;1140973;-78
2024/02/13 19:07:23;;;;;;;40.47;15.37;;;;;;;3.60;100.00;101047.70;4981012;58;1140822;-81
2024/02/13 19:12:30;;;;;;;44.70;16.83;;;;;;;3.41;100.00;101051.95;4897957;58;1141067;-80
2024/02/13 19:17:35;;;;;;;29.47;12.30;;;;;;;3.31;100.00;101046.70;4861803;59;1140869;-77
2024/02/13 19:22:41;;;;;;;29.27;12.00;;;;;;;3.25;100.00;101050.86;4977704;56;1140645;-77
2024/02/13 19:27:49;;;;;;;44.27;19.33;;;;;;;3.24;100.00;101055.69;4924775;57;1141096;-77
2024/02/13 19:32:55;;;;;;;132.47;52.30;;;;;;;3.21;100.00;101054.52;4994662;57;1140743;-78
2024/02/13 19:38:00;;;;;;;262.20;96.07;;;;;;;3.22;100.00;101059.66;4965609;57;1142822;-78
2024/02/13 19:43:06;;;;;;;67.80;27.30;;;;;;;3.25;100.00;101061.31;4906405;57;1143762;-81
2024/02/13 19:48:12;;;;;;;34.20;14.53;;;;;;;3.22;100.00;101056.19;4953093;57;1141003;-82
2024/02/13 19:53:18;;;;;;;37.53;13.13;;;;;;;3.16;100.00;101062.08;4954223;57;1140962;-81
2024/02/13 19:58:24;;;;;;;22.30;10.83;;;;;;;3.11;100.00;101063.15;4956505;58;1140593;-82
2024/02/13 20:03:31;;;;;;;25.65;11.30;;;;;;;3.08;100.00;101065.42;4902993;58;1141080;-83
2024/02/13 20:08:38;;;;;;;24.80;11.47;;;;;;;3.06;100.00;101063.31;4913390;59;1141169;-82
2024/02/13 20:13:47;;;;;;;22.17;11.70;;;;;;;3.06;100.00;101066.38;4866395;58;1141078;-81
2024/02/13 20:18:58;;;;;;;23.20;11.73;;;;;;;3.06;100.00;101065.08;4926536;57;1140729;-78
2024/02/13 20:24:04;;;;;;;21.97;10.37;;;;;;;3.06;100.00;101066.38;4950411;57;1140949;-82
2024/02/13 20:29:10;;;;;;;26.47;13.87;;;;;;;3.06;100.00;101067.23;4927070;58;1141027;-77
2024/02/13 20:34:16;;;;;;;34.15;12.33;;;;;;;3.05;100.00;101076.47;4890389;57;1141063;-78
2024/02/13 20:39:21;;;;;;;23.27;12.57;;;;;;;3.05;100.00;101075.16;4924499;57;1140853;-76
2024/02/13 20:44:27;;;;;;;36.00;16.17;;;;;;;3.09;100.00;101081.50;4958104;57;1140706;-79
2024/02/13 20:49:33;;;;;;;61.00;31.33;;;;;;;3.20;100.00;101081.11;4931960;57;1140638;-85
2024/02/13 20:54:40;;;;;;;71.43;37.33;;;;;;;3.29;100.00;101084.67;4883056;57;1140861;-79
2024/02/13 20:59:45;;;;;;;61.63;34.23;;;;;;;3.32;100.00;101083.70;4947419;57;1140789;-79
2024/02/13 21:04:51;;;;;;;70.57;36.20;;;;;;;3.30;100.00;101086.83;4938973;57;1140716;-77
2024/02/13 21:09:57;;;;;;;76.57;34.07;;;;;;;3.25;100.00;101092.67;4930951;57;1140857;-76
2024/02/13 21:15:04;;;;;;;74.17;32.87;;;;;;;3.11;100.00;101100.59;4921669;56;1140920;-79
2024/02/13 21:20:12;;;;;;;64.80;29.50;;;;;;;3.04;100.00;101101.75;4964726;57;1140994;-79
2024/02/13 21:25:18;;;;;;;69.85;26.70;;;;;;;3.00;100.00;101110.59;4851813;57;1141655;-77
2024/02/13 21:30:23;;;;;;;73.37;31.20;;;;;;;3.00;100.00;101104.06;4864409;58;1147678;-77
2024/02/13 21:35:29;;;;;;;35.70;17.80;;;;;;;3.03;100.00;101107.03;4869710;58;1140855;-80
2024/02/13 21:40:35;;;;;;;35.90;14.97;;;;;;;2.89;100.00;101102.31;4803371;58;1140973;-80
2024/02/13 21:45:40;;;;;;;36.47;14.57;;;;;;;2.71;100.00;101106.89;4812441;59;1140919;-81
2024/02/13 21:50:46;;;;;;;28.27;14.50;;;;;;;2.47;100.00;101102.91;4863136;58;1140997;-76
2024/02/13 21:55:52;;;;;;;30.47;14.87;;;;;;;2.47;100.00;101102.91;4917217;58;1141528;-78
2024/02/13 22:00:58;;;;;;;46.23;18.67;;;;;;;2.54;100.00;101112.70;4774066;58;1140846;-80
2024/02/13 22:06:04;;;;;;;45.23;19.30;;;;;;;2.58;100.00;101114.77;4783853;59;1141022;-77
2024/02/13 22:11:10;;;;;;;35.63;17.15;;;;;;;2.62;100.00;101118.49;4899407;58;1141240;-77
2024/02/13 22:16:15;;;;;;;42.93;18.62;;;;;;;2.70;100.00;101120.85;4851267;58;1140730;-77
2024/02/13 22:21:21;;;;;;;51.02;20.75;;;;;;;2.76;100.00;101125.84;4860141;58;1141247;-78
2024/02/13 22:26:28;;;;;;;51.87;21.27;;;;;;;2.75;100.00;101124.16;4866471;58;1141218;-77
2024/02/13 22:31:33;;;;;;;47.80;22.13;;;;;;;2.75;100.00;101126.77;4868081;58;1141051;-78
2024/02/13 22:36:39;;;;;;;49.85;22.25;;;;;;;2.77;100.00;101135.37;4847220;57;1141113;-80
2024/02/13 22:41:44;;;;;;;39.63;16.43;;;;;;;2.81;100.00;101142.20;4859248;58;1140743;-79
2024/02/13 22:46:50;;;;;;;36.00;15.53;;;;;;;2.74;100.00;101142.05;4868362;58;1140598;-79
2024/02/13 22:51:56;;;;;;;28.53;14.17;;;;;;;2.67;100.00;101140.54;4920516;57;1140851;-79
2024/02/13 22:57:03;;;;;;;37.90;16.20;;;;;;;2.67;100.00;101136.62;4908015;57;1140820;-80
2024/02/13 23:02:09;;;;;;;34.55;16.77;;;;;;;2.73;100.00;101127.28;4908634;58;1140906;-79
2024/02/13 23:07:17;;;;;;;31.40;14.73;;;;;;;2.73;100.00;101133.81;4951705;57;1140943;-76